EXS129W EGSS-LERS
Flight info
| Callsign | EXS129W |
|---|---|
| Flight time | N/A |
| Altitude | 33000 |
| Route | NUGBO M183 SILVA Q41 COWLY T71 VAPID N859 GWC UN859 SOPIL DCT BALAN DCT EVPOK DCT NARAK DCT GAI DCT LOMRA DCT ROCAN DCT PUMAL N31 BERGA |
| Aircraft | A321/M-SDE3FGHIRWY/LB1 |
Departure
| Time | 2026-05-04 07:14 |
|---|---|
| Airport | London Stansted Airport (EGSS) |
Arrival
| Time | N/A |
|---|---|
| Airport | Reus Airport (LERS) |
| Time | Latitude | Longitude | Altitude | Speed | Heading |
|---|---|---|---|---|---|
| 2026-05-04 06:57 | 51.88873 | 0.25386 | 354 ft | 0 kts | 43° |
| 2026-05-04 07:03 | 51.88863 | 0.25371 | 361 ft | 4 kts | 43° |
| 2026-05-04 07:03 | 51.88843 | 0.25342 | 359 ft | 4 kts | 43° |
| 2026-05-04 07:03 | 51.88823 | 0.25315 | 356 ft | 4 kts | 18° |
| 2026-05-04 07:04 | 51.88802 | 0.25316 | 355 ft | 4 kts | 323° |
| 2026-05-04 07:04 | 51.88788 | 0.25335 | 359 ft | 1 kts | 312° |
| 2026-05-04 07:04 | 51.88786 | 0.25339 | 356 ft | 0 kts | 312° |
| 2026-05-04 07:08 | 51.88895 | 0.25149 | 353 ft | 17 kts | 313° |
| 2026-05-04 07:09 | 51.88961 | 0.24999 | 356 ft | 16 kts | 274° |
| 2026-05-04 07:09 | 51.88881 | 0.24834 | 352 ft | 13 kts | 223° |
| 2026-05-04 07:09 | 51.88817 | 0.24736 | 356 ft | 12 kts | 223° |
| 2026-05-04 07:09 | 51.88760 | 0.24650 | 351 ft | 11 kts | 223° |
| 2026-05-04 07:10 | 51.88702 | 0.24562 | 352 ft | 31 kts | 223° |
| 2026-05-04 07:10 | 51.88466 | 0.24206 | 353 ft | 51 kts | 223° |
| 2026-05-04 07:12 | 51.87600 | 0.22613 | 354 ft | 21 kts | 224° |
| 2026-05-04 07:12 | 51.87518 | 0.22436 | 345 ft | 16 kts | 290° |
| 2026-05-04 07:12 | 51.87579 | 0.22324 | 337 ft | 14 kts | 315° |
| 2026-05-04 07:12 | 51.87669 | 0.22265 | 336 ft | 14 kts | 10° |
| 2026-05-04 07:13 | 51.87742 | 0.22343 | 336 ft | 8 kts | 43° |
| 2026-05-04 07:13 | 51.87744 | 0.22346 | 337 ft | 0 kts | 43° |
| 2026-05-04 07:14 | 51.89414 | 0.24842 | 936 ft | 141 kts | 40° |
| 2026-05-04 07:14 | 51.90143 | 0.25903 | 1625 ft | 146 kts | 41° |
| 2026-05-04 07:15 | 51.90927 | 0.27064 | 2095 ft | 161 kts | 41° |
| 2026-05-04 07:15 | 51.91794 | 0.28380 | 2390 ft | 182 kts | 42° |
| 2026-05-04 07:15 | 51.92879 | 0.29618 | 2632 ft | 202 kts | 21° |
| 2026-05-04 07:15 | 51.94325 | 0.29865 | 2896 ft | 217 kts | 351° |
| 2026-05-04 07:16 | 51.95715 | 0.28892 | 3336 ft | 222 kts | 322° |
| 2026-05-04 07:16 | 51.96670 | 0.26880 | 3589 ft | 238 kts | 291° |
| 2026-05-04 07:16 | 51.97054 | 0.24179 | 3875 ft | 258 kts | 280° |
| 2026-05-04 07:16 | 51.97346 | 0.21526 | 4514 ft | 263 kts | 280° |
| 2026-05-04 07:17 | 51.97551 | 0.19606 | 5001 ft | 265 kts | 279° |
| 2026-05-04 07:17 | 51.97847 | 0.16776 | 5702 ft | 268 kts | 279° |
| 2026-05-04 07:17 | 51.98162 | 0.13783 | 6437 ft | 270 kts | 279° |
| 2026-05-04 07:17 | 51.98372 | 0.11800 | 6878 ft | 272 kts | 279° |
| 2026-05-04 07:18 | 51.98697 | 0.08763 | 7582 ft | 275 kts | 279° |
| 2026-05-04 07:18 | 51.98859 | 0.05675 | 8244 ft | 276 kts | 265° |
| 2026-05-04 07:18 | 51.98541 | 0.02633 | 8912 ft | 278 kts | 257° |
| 2026-05-04 07:18 | 51.98157 | -0.00322 | 9567 ft | 280 kts | 257° |
| 2026-05-04 07:19 | 51.97751 | -0.03435 | 10185 ft | 284 kts | 257° |
| 2026-05-04 07:19 | 51.97325 | -0.06691 | 10333 ft | 305 kts | 257° |
| 2026-05-04 07:19 | 51.96894 | -0.09984 | 10454 ft | 324 kts | 257° |
| 2026-05-04 07:19 | 51.96402 | -0.13668 | 10583 ft | 342 kts | 254° |
| 2026-05-04 07:20 | 51.95417 | -0.17243 | 10709 ft | 357 kts | 234° |
| 2026-05-04 07:20 | 51.93621 | -0.20064 | 10982 ft | 367 kts | 212° |
| 2026-05-04 07:20 | 51.91274 | -0.21626 | 11429 ft | 372 kts | 191° |
| 2026-05-04 07:20 | 51.88679 | -0.21756 | 11907 ft | 377 kts | 177° |
| 2026-05-04 07:22 | 51.70618 | -0.19414 | 15092 ft | 393 kts | 176° |
| 2026-05-04 07:22 | 51.67885 | -0.19078 | 15483 ft | 395 kts | 176° |
| 2026-05-04 07:23 | 51.65141 | -0.18743 | 15877 ft | 396 kts | 176° |
| 2026-05-04 07:23 | 51.62383 | -0.18402 | 16268 ft | 398 kts | 176° |
| 2026-05-04 07:23 | 51.59612 | -0.18051 | 16655 ft | 400 kts | 176° |
| 2026-05-04 07:23 | 51.56984 | -0.17717 | 17015 ft | 402 kts | 176° |
| 2026-05-04 07:24 | 51.54196 | -0.17374 | 17386 ft | 404 kts | 176° |
| 2026-05-04 07:24 | 51.51386 | -0.17030 | 17781 ft | 406 kts | 176° |
| 2026-05-04 07:24 | 51.48567 | -0.16680 | 18188 ft | 408 kts | 176° |
| 2026-05-04 07:24 | 51.45732 | -0.16326 | 18557 ft | 409 kts | 176° |
| 2026-05-04 07:25 | 51.42882 | -0.15972 | 18919 ft | 411 kts | 177° |
| 2026-05-04 07:26 | 51.23371 | -0.13567 | 21412 ft | 423 kts | 178° |
| 2026-05-04 07:27 | 51.20428 | -0.13206 | 21772 ft | 425 kts | 178° |
| 2026-05-04 07:27 | 51.17480 | -0.12849 | 22131 ft | 426 kts | 178° |
| 2026-05-04 07:27 | 51.14516 | -0.12491 | 22483 ft | 428 kts | 178° |
| 2026-05-04 07:27 | 51.11536 | -0.12130 | 22843 ft | 430 kts | 178° |
| 2026-05-04 07:28 | 51.08547 | -0.11764 | 23183 ft | 432 kts | 178° |
| 2026-05-04 07:28 | 51.05580 | -0.11400 | 23534 ft | 434 kts | 179° |
| 2026-05-04 07:28 | 51.02565 | -0.11033 | 23835 ft | 435 kts | 179° |
| 2026-05-04 07:28 | 50.99545 | -0.10668 | 24153 ft | 436 kts | 178° |
| 2026-05-04 07:29 | 50.97494 | -0.10419 | 24377 ft | 436 kts | 178° |
| 2026-05-04 07:30 | 50.95886 | -0.10109 | 24703 ft | 431 kts | 173° |
| 2026-05-04 07:30 | 50.92903 | -0.09371 | 24824 ft | 435 kts | 176° |
| 2026-05-04 07:31 | 50.90045 | -0.08971 | 25058 ft | 435 kts | 179° |
| 2026-05-04 07:31 | 50.87120 | -0.08748 | 25325 ft | 435 kts | 180° |
| 2026-05-04 07:33 | 50.66179 | -0.06660 | 27291 ft | 430 kts | 178° |
| 2026-05-04 07:33 | 50.63209 | -0.06280 | 27632 ft | 427 kts | 178° |
| 2026-05-04 07:33 | 50.60257 | -0.05913 | 27974 ft | 424 kts | 178° |
| 2026-05-04 07:33 | 50.57316 | -0.05560 | 28310 ft | 422 kts | 178° |
| 2026-05-04 07:34 | 50.54399 | -0.05219 | 28647 ft | 419 kts | 178° |
| 2026-05-04 07:34 | 50.51589 | -0.04894 | 28966 ft | 417 kts | 178° |
| 2026-05-04 07:34 | 50.48842 | -0.04573 | 29271 ft | 415 kts | 178° |
| 2026-05-04 07:34 | 50.45971 | -0.04235 | 29592 ft | 412 kts | 178° |
| 2026-05-04 07:35 | 50.43123 | -0.03896 | 29904 ft | 410 kts | 178° |
| 2026-05-04 07:35 | 50.40284 | -0.03557 | 30190 ft | 408 kts | 178° |
| 2026-05-04 07:35 | 50.37453 | -0.03222 | 30399 ft | 408 kts | 178° |
| 2026-05-04 07:35 | 50.34619 | -0.02888 | 30555 ft | 409 kts | 178° |
| 2026-05-04 07:36 | 50.31776 | -0.02557 | 30695 ft | 410 kts | 178° |
| 2026-05-04 07:36 | 50.28918 | -0.02221 | 30819 ft | 412 kts | 178° |
| 2026-05-04 07:38 | 50.08938 | 0.00416 | 32104 ft | 415 kts | 170° |
| 2026-05-04 07:38 | 50.06132 | 0.01521 | 32276 ft | 416 kts | 169° |
| 2026-05-04 07:38 | 50.03332 | 0.02637 | 32436 ft | 417 kts | 169° |
| 2026-05-04 07:38 | 50.00555 | 0.03738 | 32623 ft | 417 kts | 169° |
| 2026-05-04 07:39 | 49.97744 | 0.04845 | 32804 ft | 417 kts | 169° |
| 2026-05-04 07:39 | 49.94922 | 0.05949 | 32968 ft | 418 kts | 169° |
| 2026-05-04 07:39 | 49.89293 | 0.08146 | 33006 ft | 417 kts | 169° |
| 2026-05-04 07:40 | 49.83675 | 0.10353 | 33001 ft | 417 kts | 168° |
| 2026-05-04 07:40 | 49.78095 | 0.12542 | 32998 ft | 417 kts | 169° |
| 2026-05-04 07:41 | 49.72475 | 0.14723 | 33007 ft | 416 kts | 169° |
| 2026-05-04 07:41 | 49.66859 | 0.16907 | 32997 ft | 416 kts | 168° |
| 2026-05-04 07:42 | 49.61256 | 0.19156 | 32995 ft | 416 kts | 168° |
| 2026-05-04 07:42 | 49.55691 | 0.21423 | 33003 ft | 416 kts | 168° |
| 2026-05-04 07:43 | 49.50094 | 0.23673 | 32998 ft | 416 kts | 168° |
| 2026-05-04 07:43 | 49.44497 | 0.25909 | 32990 ft | 416 kts | 168° |
| 2026-05-04 07:44 | 49.38912 | 0.28140 | 32988 ft | 416 kts | 168° |
| 2026-05-04 07:44 | 49.33309 | 0.30383 | 32989 ft | 416 kts | 168° |
| 2026-05-04 07:45 | 49.27709 | 0.32647 | 32988 ft | 416 kts | 167° |
| 2026-05-04 07:45 | 49.22243 | 0.34957 | 32992 ft | 416 kts | 167° |
| 2026-05-04 07:46 | 49.16685 | 0.37318 | 32992 ft | 416 kts | 167° |
| 2026-05-04 07:46 | 49.11181 | 0.39642 | 32991 ft | 416 kts | 167° |
| 2026-05-04 07:47 | 49.05759 | 0.41921 | 32987 ft | 416 kts | 167° |
| 2026-05-04 07:49 | 48.86334 | 0.50009 | 32996 ft | 416 kts | 167° |
| 2026-05-04 07:49 | 48.81317 | 0.52105 | 32994 ft | 416 kts | 167° |
| 2026-05-04 07:50 | 48.76211 | 0.54200 | 32978 ft | 411 kts | 169° |
| 2026-05-04 07:50 | 48.71632 | 0.55368 | 32951 ft | 405 kts | 169° |
| 2026-05-04 07:51 | 48.66751 | 0.57313 | 32949 ft | 412 kts | 165° |
| 2026-05-04 07:51 | 48.61509 | 0.59782 | 32951 ft | 414 kts | 166° |
| 2026-05-04 07:52 | 48.57103 | 0.61689 | 32957 ft | 414 kts | 167° |
| 2026-05-04 07:52 | 48.52366 | 0.63557 | 32959 ft | 414 kts | 168° |
| 2026-05-04 07:54 | 48.33334 | 0.71210 | 32966 ft | 414 kts | 167° |
| 2026-05-04 07:55 | 48.28578 | 0.73144 | 32966 ft | 414 kts | 167° |
| 2026-05-04 07:55 | 48.24015 | 0.74982 | 32971 ft | 415 kts | 167° |
| 2026-05-04 07:56 | 48.19671 | 0.76688 | 32968 ft | 415 kts | 167° |
| 2026-05-04 07:56 | 48.15393 | 0.78356 | 32971 ft | 415 kts | 167° |
| 2026-05-04 07:57 | 48.10876 | 0.80195 | 32958 ft | 407 kts | 167° |
| 2026-05-04 07:57 | 48.06429 | 0.82006 | 32942 ft | 403 kts | 169° |
| 2026-05-04 07:58 | 48.01956 | 0.82772 | 32970 ft | 392 kts | 179° |
| 2026-05-04 07:58 | 47.97283 | 0.83746 | 32976 ft | 390 kts | 167° |
| 2026-05-04 07:59 | 47.93195 | 0.85962 | 32980 ft | 390 kts | 160° |
| 2026-05-04 07:59 | 47.89211 | 0.89478 | 32988 ft | 387 kts | 151° |
| 2026-05-04 08:00 | 47.87384 | 0.90992 | 32965 ft | 383 kts | 166° |
| 2026-05-04 08:00 | 47.85201 | 0.91439 | 33007 ft | 375 kts | 187° |
| 2026-05-04 08:00 | 47.83400 | 0.90449 | 32592 ft | 382 kts | 217° |
| 2026-05-04 08:02 | 47.80785 | 0.69245 | 25790 ft | 430 kts | 234° |
| 2026-05-04 08:02 | 47.79312 | 0.66399 | 26140 ft | 418 kts | 229° |
| 2026-05-04 08:02 | 47.77878 | 0.63511 | 26610 ft | 409 kts | 232° |
| 2026-05-04 08:03 | 47.76752 | 0.61511 | 27249 ft | 391 kts | 222° |
| 2026-05-04 08:03 | 47.76088 | 0.60583 | 27603 ft | 381 kts | 218° |
| 2026-05-04 08:04 | 47.73987 | 0.58886 | 29162 ft | 326 kts | 198° |
| 2026-05-04 08:04 | 47.71980 | 0.58109 | 30319 ft | 299 kts | 192° |
| 2026-05-04 08:04 | 47.70173 | 0.57760 | 31120 ft | 282 kts | 182° |
| 2026-05-04 08:04 | 47.68275 | 0.58146 | 31191 ft | 292 kts | 164° |
| 2026-05-04 08:05 | 47.66487 | 0.59403 | 31208 ft | 299 kts | 161° |
| 2026-05-04 08:05 | 47.64659 | 0.60490 | 31402 ft | 297 kts | 164° |
| 2026-05-04 08:05 | 47.62850 | 0.61386 | 31046 ft | 313 kts | 169° |
| 2026-05-04 08:05 | 47.60943 | 0.62233 | 30951 ft | 321 kts | 159° |
| 2026-05-04 08:06 | 47.59144 | 0.63424 | 31213 ft | 320 kts | 162° |
| 2026-05-04 08:06 | 47.57373 | 0.64513 | 31097 ft | 330 kts | 162° |
| 2026-05-04 08:06 | 47.54958 | 0.65902 | 31180 ft | 333 kts | 167° |
| 2026-05-04 08:08 | 47.45601 | 0.69203 | 31177 ft | 305 kts | 168° |
| 2026-05-04 08:08 | 47.43855 | 0.69960 | 31174 ft | 301 kts | 168° |
| 2026-05-04 08:10 | 47.32213 | 0.75011 | 32163 ft | 285 kts | 167° |